createdAt,value
2023-01-07T00:01:27.735Z,1.90
2023-01-07T00:03:55.583Z,1.97
2023-01-07T00:06:23.964Z,1.70
2023-01-07T00:08:51.906Z,1.90
2023-01-07T00:11:23.655Z,2.03
2023-01-07T00:13:51.623Z,2.00
2023-01-07T00:16:20.093Z,2.03
2023-01-07T00:18:48.085Z,1.67
2023-01-07T00:21:16.633Z,2.00
2023-01-07T00:23:44.744Z,2.07
2023-01-07T00:26:13.704Z,1.70
2023-01-07T00:28:41.997Z,2.17
2023-01-07T00:31:11.004Z,1.83
2023-01-07T00:33:51.760Z,2.00
2023-01-07T00:36:20.045Z,1.90
2023-01-07T00:38:47.716Z,1.80
2023-01-07T00:41:15.220Z,1.97
2023-01-07T00:43:43.261Z,1.77
2023-01-07T00:46:11.534Z,1.90
2023-01-07T00:48:38.799Z,1.70
2023-01-07T00:51:06.164Z,1.80
2023-01-07T00:53:33.502Z,1.80
2023-01-07T00:56:00.831Z,1.87
2023-01-07T00:58:28.301Z,1.90
2023-01-07T01:00:57.331Z,1.80
2023-01-07T01:03:26.002Z,1.63
2023-01-07T01:05:53.248Z,1.70
2023-01-07T01:08:21.257Z,1.83
2023-01-07T01:10:48.781Z,1.70
2023-01-07T01:13:18.296Z,1.77
2023-01-07T01:15:49.392Z,1.67
2023-01-07T01:18:16.832Z,1.80
2023-01-07T01:20:44.100Z,1.50
2023-01-07T01:23:11.374Z,1.53
2023-01-07T01:25:39.847Z,1.80
2023-01-07T01:28:07.200Z,1.60
2023-01-07T01:30:34.445Z,1.50
2023-01-07T01:33:01.756Z,1.53
2023-01-07T01:35:29.683Z,1.20
2023-01-07T01:37:57.554Z,1.43
2023-01-07T01:40:28.767Z,1.63
2023-01-07T01:42:56.071Z,1.77
2023-01-07T01:45:23.445Z,1.37
2023-01-07T01:47:56.778Z,1.40
2023-01-07T01:50:35.457Z,1.67
2023-01-07T01:53:06.134Z,1.47
2023-01-07T01:55:39.035Z,1.33
2023-01-07T01:58:08.768Z,1.53
2023-01-07T02:00:36.411Z,1.60
2023-01-07T02:03:07.071Z,1.37
2023-01-07T02:05:35.725Z,1.50
2023-01-07T02:08:03.187Z,1.60
2023-01-07T02:10:33.147Z,1.40
2023-01-07T02:13:17.389Z,1.30
2023-01-07T02:15:44.668Z,1.50
2023-01-07T02:18:11.907Z,1.63
2023-01-07T02:20:55.859Z,1.60
2023-01-07T02:23:23.132Z,1.63
2023-01-07T02:25:53.377Z,1.40
2023-01-07T02:28:39.682Z,1.47
2023-01-07T02:31:26.894Z,1.70
2023-01-07T02:34:03.503Z,1.83
2023-01-07T02:36:44.084Z,1.27
2023-01-07T02:39:16.168Z,1.50
2023-01-07T02:41:58.281Z,1.40
2023-01-07T02:44:27.472Z,1.87
2023-01-07T02:47:13.544Z,1.30
2023-01-07T02:49:42.020Z,1.70
2023-01-07T02:52:16.995Z,1.80
2023-01-07T02:54:44.700Z,1.57
2023-01-07T02:57:12.408Z,1.57
2023-01-07T02:59:48.450Z,1.87
2023-01-07T03:02:34.161Z,1.50
2023-01-07T03:05:09.730Z,1.93
2023-01-07T03:07:46.688Z,1.83
2023-01-07T03:10:14.404Z,1.83
2023-01-07T03:12:52.116Z,1.60
2023-01-07T03:15:29.296Z,1.87
2023-01-07T03:18:12.924Z,1.93
2023-01-07T03:20:41.906Z,1.80
2023-01-07T03:23:11.731Z,1.90
2023-01-07T03:25:42.835Z,1.77
2023-01-07T03:28:11.419Z,1.60
2023-01-07T03:30:39.275Z,1.90
2023-01-07T03:33:17.737Z,2.07
2023-01-07T03:35:47.888Z,1.53
2023-01-07T03:38:16.054Z,2.20
2023-01-07T03:40:43.504Z,1.73
2023-01-07T03:43:14.871Z,1.80
2023-01-07T03:45:43.183Z,2.00
2023-01-07T03:48:10.444Z,1.70
2023-01-07T03:50:39.117Z,1.73
2023-01-07T03:53:07.724Z,1.63
2023-01-07T03:55:37.235Z,1.80
2023-01-07T03:58:04.555Z,1.73
2023-01-07T04:00:32.378Z,1.90
2023-01-07T04:03:08.981Z,1.73
2023-01-07T04:05:40.413Z,1.77
2023-01-07T04:08:08.413Z,2.30
2023-01-07T04:10:38.729Z,1.63
2023-01-07T04:13:06.071Z,1.47
2023-01-07T04:15:33.758Z,1.93
2023-01-07T04:18:01.109Z,1.80
2023-01-07T04:20:29.104Z,1.57
2023-01-07T04:22:56.465Z,1.90
2023-01-07T04:25:23.786Z,1.90
2023-01-07T04:27:51.261Z,1.80
2023-01-07T04:30:18.620Z,1.63
2023-01-07T04:32:46.012Z,1.60
2023-01-07T04:35:13.403Z,1.63
2023-01-07T04:37:40.775Z,1.40
2023-01-07T04:40:08.524Z,2.10
2023-01-07T04:42:37.242Z,1.87
2023-01-07T04:45:07.238Z,1.67
2023-01-07T04:47:34.778Z,1.80
2023-01-07T04:50:02.238Z,1.87
2023-01-07T04:52:32.710Z,1.50
2023-01-07T04:55:00.099Z,1.70
2023-01-07T04:57:28.030Z,1.87
2023-01-07T04:59:55.360Z,1.67
2023-01-07T05:02:22.982Z,1.60
2023-01-07T05:04:50.488Z,2.10
2023-01-07T05:07:19.377Z,1.90
2023-01-07T05:09:46.671Z,2.50
2023-01-07T05:12:14.259Z,1.90
2023-01-07T05:14:43.096Z,1.87
2023-01-07T05:17:10.354Z,2.57
2023-01-07T05:19:38.784Z,2.37
2023-01-07T05:22:06.454Z,1.90
2023-01-07T05:24:37.828Z,1.93
2023-01-07T05:27:05.406Z,1.83
2023-01-07T05:29:33.148Z,1.97
2023-01-07T05:32:00.455Z,1.87
2023-01-07T05:34:28.034Z,2.23
2023-01-07T05:36:55.733Z,2.00
2023-01-07T05:39:23.375Z,2.20
2023-01-07T05:41:50.661Z,2.10
2023-01-07T05:44:18.018Z,2.40
2023-01-07T05:46:45.478Z,2.23
2023-01-07T05:49:12.971Z,2.67
2023-01-07T05:51:40.216Z,2.50
2023-01-07T05:54:07.727Z,2.30
2023-01-07T05:56:35.335Z,2.40
2023-01-07T05:59:03.050Z,2.10
2023-01-07T06:01:30.456Z,2.37
2023-01-07T06:03:58.325Z,2.03
2023-01-07T06:06:25.642Z,2.07
2023-01-07T06:08:52.972Z,2.30
2023-01-07T06:11:20.307Z,3.03
2023-01-07T06:13:47.588Z,2.13
2023-01-07T06:16:15.105Z,2.30
2023-01-07T06:18:42.428Z,2.30
2023-01-07T06:21:09.679Z,2.17
2023-01-07T06:23:37.246Z,2.47
2023-01-07T06:26:04.685Z,2.57
2023-01-07T06:28:32.062Z,2.50
2023-01-07T06:30:59.482Z,2.33
2023-01-07T06:33:26.870Z,2.63
2023-01-07T06:35:54.130Z,2.00
2023-01-07T06:38:21.489Z,2.60
2023-01-07T06:40:48.859Z,2.50
2023-01-07T06:43:16.272Z,3.15
2023-01-07T06:45:43.734Z,2.60
2023-01-07T06:48:11.003Z,2.37
2023-01-07T06:50:38.300Z,2.23
2023-01-07T06:53:05.892Z,2.50
2023-01-07T06:55:33.249Z,2.57
2023-01-07T06:58:00.572Z,2.50
2023-01-07T07:00:27.985Z,2.13
2023-01-07T07:02:55.408Z,2.10
2023-01-07T07:05:22.703Z,2.30
2023-01-07T07:07:49.995Z,2.30
2023-01-07T07:10:17.510Z,2.10
2023-01-07T07:12:44.877Z,2.10
2023-01-07T07:15:12.475Z,2.20
2023-01-07T07:17:39.876Z,2.30
2023-01-07T07:20:07.645Z,2.37
2023-01-07T07:22:34.986Z,2.10
2023-01-07T07:25:02.381Z,2.17
2023-01-07T07:27:29.807Z,1.77
2023-01-07T07:29:57.159Z,2.07
2023-01-07T07:32:28.368Z,2.20
2023-01-07T07:34:57.296Z,1.87
2023-01-07T07:37:24.674Z,1.80
2023-01-07T07:39:52.099Z,1.93
2023-01-07T07:42:19.483Z,1.70
2023-01-07T07:44:46.862Z,1.80
2023-01-07T07:47:14.267Z,1.90
2023-01-07T07:49:41.698Z,2.07
2023-01-07T07:52:09.203Z,1.87
2023-01-07T07:54:36.631Z,1.23
2023-01-07T07:57:04.021Z,2.00
2023-01-07T07:59:31.612Z,1.97
2023-01-07T08:01:59.215Z,1.80
2023-01-07T08:04:28.872Z,1.70
2023-01-07T08:06:56.372Z,1.33
2023-01-07T08:09:23.771Z,1.47
2023-01-07T08:11:51.145Z,1.70
2023-01-07T08:14:18.570Z,1.53
2023-01-07T08:16:46.071Z,1.27
2023-01-07T08:19:14.937Z,1.40
2023-01-07T08:21:42.362Z,1.50
2023-01-07T08:24:09.849Z,1.70
2023-01-07T08:26:37.562Z,1.53
2023-01-07T08:29:05.634Z,1.30
2023-01-07T08:31:33.347Z,1.50
2023-01-07T08:34:00.907Z,1.27
2023-01-07T08:36:28.355Z,1.37
2023-01-07T08:38:56.140Z,1.23
2023-01-07T08:41:24.413Z,2.00
2023-01-07T08:43:52.259Z,1.10
2023-01-07T08:46:19.766Z,1.00
2023-01-07T08:48:47.224Z,1.40
2023-01-07T08:51:15.049Z,1.33
2023-01-07T08:53:42.501Z,1.43
2023-01-07T08:56:09.948Z,1.10
2023-01-07T08:58:38.468Z,1.50
2023-01-07T09:01:07.288Z,1.33
2023-01-07T09:03:35.441Z,1.20
2023-01-07T09:06:02.900Z,1.10
2023-01-07T09:08:30.409Z,1.03
2023-01-07T09:10:58.038Z,1.40
2023-01-07T09:13:25.466Z,1.40
2023-01-07T09:15:53.265Z,1.33
2023-01-07T09:18:21.589Z,1.00
2023-01-07T09:20:49.014Z,1.10
2023-01-07T09:23:16.672Z,1.33
2023-01-07T09:25:44.105Z,1.23
2023-01-07T09:28:11.525Z,1.27
2023-01-07T09:30:38.965Z,1.03
2023-01-07T09:33:06.398Z,1.27
2023-01-07T09:35:33.963Z,1.20
2023-01-07T09:38:01.399Z,1.50
2023-01-07T09:40:30.545Z,1.00
2023-01-07T09:43:07.850Z,1.20
2023-01-07T09:45:37.708Z,1.17
2023-01-07T09:48:10.642Z,1.00
2023-01-07T09:50:47.873Z,1.13
2023-01-07T09:53:18.928Z,1.20
2023-01-07T09:56:10.962Z,1.07
2023-01-07T09:58:37.866Z,1.10
2023-01-07T10:01:17.709Z,1.37
2023-01-07T10:04:00.055Z,1.07
2023-01-07T10:06:43.090Z,1.60
2023-01-07T10:09:23.859Z,1.13
2023-01-07T10:11:53.069Z,1.00
2023-01-07T10:14:29.265Z,1.00
2023-01-07T10:17:05.345Z,0.90
2023-01-07T10:19:45.159Z,0.90
2023-01-07T10:22:32.952Z,1.20
2023-01-07T10:25:03.769Z,1.20
2023-01-07T10:27:35.205Z,1.00
2023-01-07T10:30:03.911Z,1.20
2023-01-07T10:32:33.289Z,1.13
2023-01-07T10:35:01.879Z,0.90
2023-01-07T10:37:31.696Z,1.10
2023-01-07T10:40:09.323Z,1.03
2023-01-07T10:42:56.999Z,1.17
2023-01-07T10:45:27.964Z,1.00
2023-01-07T10:48:11.903Z,1.10
2023-01-07T10:50:45.327Z,0.83
2023-01-07T10:53:24.868Z,1.00
2023-01-07T10:55:52.350Z,1.17
2023-01-07T10:58:19.843Z,1.30
2023-01-07T11:00:48.131Z,1.10
2023-01-07T11:03:23.027Z,1.10
2023-01-07T11:05:59.790Z,1.00
2023-01-07T11:08:33.334Z,1.03
2023-01-07T11:11:00.794Z,1.10
2023-01-07T11:13:30.927Z,1.13
2023-01-07T11:16:08.081Z,1.10
2023-01-07T11:18:40.103Z,1.13
2023-01-07T11:21:07.613Z,0.80
2023-01-07T11:23:38.979Z,1.00
2023-01-07T11:26:25.793Z,1.00
2023-01-07T11:28:54.839Z,1.17
2023-01-07T11:31:23.831Z,1.03
2023-01-07T11:34:01.475Z,0.90
2023-01-07T11:36:43.779Z,1.00
2023-01-07T11:39:12.673Z,1.30
2023-01-07T11:41:51.498Z,1.10
2023-01-07T11:44:19.028Z,1.10
2023-01-07T11:46:46.607Z,1.10
2023-01-07T11:49:27.960Z,1.07
2023-01-07T11:51:55.895Z,1.00
2023-01-07T11:54:24.962Z,0.90
2023-01-07T11:56:54.781Z,1.13
2023-01-07T11:59:29.919Z,1.10
2023-01-07T12:01:59.503Z,1.23
2023-01-07T12:04:27.088Z,0.90
2023-01-07T12:07:02.446Z,1.23
2023-01-07T12:09:34.118Z,0.90
2023-01-07T12:12:34.209Z,1.20
2023-01-07T12:15:02.991Z,0.90
2023-01-07T12:17:33.276Z,1.00
2023-01-07T12:20:00.688Z,1.20
2023-01-07T12:22:28.259Z,1.23
2023-01-07T12:25:04.791Z,1.30
2023-01-07T12:27:40.376Z,0.90
2023-01-07T12:30:23.671Z,1.20
2023-01-07T12:32:54.219Z,1.00
2023-01-07T12:35:25.624Z,0.90
2023-01-07T12:37:57.489Z,1.40
2023-01-07T12:40:47.280Z,1.20
2023-01-07T12:43:21.100Z,1.10
2023-01-07T12:45:51.985Z,1.03
2023-01-07T12:48:34.633Z,1.13
2023-01-07T12:51:03.850Z,1.10
2023-01-07T12:53:40.110Z,1.10
2023-01-07T12:56:37.139Z,1.00
2023-01-07T12:59:45.810Z,1.00
2023-01-07T13:02:23.799Z,0.90
2023-01-07T13:05:02.809Z,1.20
2023-01-07T13:07:41.915Z,0.83
2023-01-07T13:10:15.684Z,1.10
2023-01-07T13:12:44.136Z,1.03
2023-01-07T13:15:16.082Z,1.10
2023-01-07T13:17:46.123Z,1.13
2023-01-07T13:20:14.140Z,1.27
2023-01-07T13:22:47.012Z,1.13
2023-01-07T13:25:22.490Z,1.20
2023-01-07T13:28:09.029Z,1.30
2023-01-07T13:31:06.151Z,1.33
2023-01-07T13:33:52.382Z,1.30
2023-01-07T13:36:22.916Z,1.60
2023-01-07T13:39:09.296Z,1.20
2023-01-07T13:41:37.284Z,1.30
2023-01-07T13:44:10.824Z,1.10
2023-01-07T13:46:40.726Z,1.10
2023-01-07T13:49:19.053Z,1.23
2023-01-07T13:51:46.561Z,1.10
2023-01-07T13:54:14.107Z,1.13
2023-01-07T13:56:41.621Z,1.20
2023-01-07T13:59:29.422Z,1.27
2023-01-07T14:02:15.091Z,1.13
2023-01-07T14:04:49.887Z,0.93
2023-01-07T14:07:18.057Z,1.17
2023-01-07T14:09:46.030Z,0.93
2023-01-07T14:12:35.953Z,1.20
2023-01-07T14:15:19.945Z,1.20
2023-01-07T14:18:08.321Z,1.00
2023-01-07T14:20:35.798Z,1.13
2023-01-07T14:23:12.912Z,0.97
2023-01-07T14:25:40.402Z,1.30
2023-01-07T14:28:13.925Z,1.00
2023-01-07T14:30:46.362Z,1.40
2023-01-07T14:33:22.034Z,1.30
2023-01-07T14:35:54.588Z,0.83
2023-01-07T14:38:31.301Z,1.10
2023-01-07T14:41:13.229Z,1.03
2023-01-07T14:43:44.067Z,1.00
2023-01-07T14:46:24.088Z,1.20
2023-01-07T14:49:03.835Z,1.50
2023-01-07T14:51:37.530Z,1.03
2023-01-07T14:54:14.216Z,1.03
2023-01-07T14:57:00.213Z,1.40
2023-01-07T14:59:27.632Z,1.20
2023-01-07T15:02:00.868Z,1.27
2023-01-07T15:04:28.367Z,1.17
2023-01-07T15:06:57.290Z,1.30
2023-01-07T15:09:55.166Z,1.30
2023-01-07T15:12:45.547Z,1.40
2023-01-07T15:15:39.067Z,1.03
2023-01-07T15:18:07.966Z,1.37
2023-01-07T15:20:48.094Z,1.13
2023-01-07T15:23:48.127Z,1.33
2023-01-07T15:26:22.817Z,1.00
2023-01-07T15:29:08.885Z,1.17
2023-01-07T15:31:43.725Z,1.40
2023-01-07T15:34:15.919Z,1.03
2023-01-07T15:36:45.372Z,1.30
2023-01-07T15:39:27.908Z,1.20
2023-01-07T15:41:56.036Z,1.30
2023-01-07T15:44:29.507Z,1.13
2023-01-07T15:46:57.330Z,1.10
2023-01-07T15:49:25.829Z,1.10
2023-01-07T15:51:55.856Z,1.23
2023-01-07T15:54:31.138Z,1.20
2023-01-07T15:57:01.687Z,1.23
2023-01-07T15:59:32.142Z,1.00
2023-01-07T16:02:02.660Z,1.10
2023-01-07T16:04:32.188Z,1.03
2023-01-07T16:07:00.644Z,1.50
2023-01-07T16:09:28.708Z,1.20
2023-01-07T16:11:56.468Z,1.10
2023-01-07T16:14:25.709Z,1.13
2023-01-07T16:17:09.769Z,1.30
2023-01-07T16:19:37.239Z,1.60
2023-01-07T16:22:04.935Z,1.43
2023-01-07T16:24:32.429Z,1.27
2023-01-07T16:27:05.396Z,1.30
2023-01-07T16:29:50.446Z,1.23
2023-01-07T16:32:18.535Z,1.20
2023-01-07T16:34:46.286Z,1.30
2023-01-07T16:37:16.067Z,1.30
2023-01-07T16:39:47.337Z,1.20
2023-01-07T16:42:24.970Z,1.20
2023-01-07T16:44:55.414Z,1.20
2023-01-07T16:47:23.315Z,1.27
2023-01-07T16:49:52.289Z,1.30
2023-01-07T16:52:20.808Z,1.07
2023-01-07T16:54:49.010Z,1.03
2023-01-07T16:57:16.497Z,1.00
2023-01-07T16:59:45.760Z,1.13
2023-01-07T17:02:38.424Z,1.33
2023-01-07T17:05:26.200Z,1.57
2023-01-07T17:07:58.788Z,1.10
2023-01-07T17:10:52.712Z,1.20
2023-01-07T17:13:23.286Z,1.20
2023-01-07T17:15:51.135Z,1.60
2023-01-07T17:18:18.552Z,1.20
2023-01-07T17:20:53.284Z,1.03
2023-01-07T17:23:27.000Z,1.43
2023-01-07T17:25:59.445Z,1.10
2023-01-07T17:28:28.058Z,1.30
2023-01-07T17:30:55.596Z,1.47
2023-01-07T17:33:24.383Z,1.63
2023-01-07T17:35:54.150Z,1.10
2023-01-07T17:38:21.729Z,1.00
2023-01-07T17:40:49.895Z,1.10
2023-01-07T17:43:34.352Z,1.33
2023-01-07T17:46:10.213Z,1.30
2023-01-07T17:48:38.196Z,1.10
2023-01-07T17:51:07.036Z,1.20
2023-01-07T17:53:37.199Z,1.17
2023-01-07T17:56:14.208Z,1.27
2023-01-07T17:58:41.855Z,1.43
2023-01-07T18:01:11.009Z,1.60
2023-01-07T18:03:38.551Z,1.27
2023-01-07T18:06:15.096Z,1.40
2023-01-07T18:08:42.594Z,1.30
2023-01-07T18:11:31.904Z,1.30
2023-01-07T18:13:59.472Z,1.50
2023-01-07T18:16:27.231Z,1.20
2023-01-07T18:18:56.609Z,1.50
2023-01-07T18:21:25.277Z,1.30
2023-01-07T18:23:53.066Z,1.00
2023-01-07T18:26:20.640Z,1.37
2023-01-07T18:28:49.360Z,1.73
2023-01-07T18:31:20.341Z,1.30
2023-01-07T18:33:50.587Z,1.47
2023-01-07T18:36:18.861Z,1.30
2023-01-07T18:38:46.440Z,1.70
2023-01-07T18:41:14.556Z,1.30
2023-01-07T18:43:42.015Z,1.43
2023-01-07T18:46:09.953Z,1.27
2023-01-07T18:48:37.640Z,1.20
2023-01-07T18:51:09.785Z,1.37
2023-01-07T18:53:37.390Z,1.47
2023-01-07T18:56:08.397Z,1.40
2023-01-07T18:58:36.922Z,1.13
2023-01-07T19:01:05.372Z,1.30
2023-01-07T19:03:33.120Z,1.40
2023-01-07T19:06:00.716Z,1.40
2023-01-07T19:08:29.232Z,1.30
2023-01-07T19:10:56.720Z,1.50
2023-01-07T19:13:24.548Z,1.50
2023-01-07T19:15:52.075Z,1.63
2023-01-07T19:18:19.603Z,1.33
2023-01-07T19:20:47.022Z,1.10
2023-01-07T19:23:14.484Z,1.67
2023-01-07T19:25:42.653Z,1.20
2023-01-07T19:28:10.177Z,1.67
2023-01-07T19:30:37.910Z,1.30
2023-01-07T19:33:05.845Z,1.73
2023-01-07T19:35:33.289Z,1.60
2023-01-07T19:38:00.763Z,1.47
2023-01-07T19:40:28.260Z,1.40
2023-01-07T19:42:57.157Z,1.33
2023-01-07T19:45:24.562Z,1.20
2023-01-07T19:47:52.754Z,1.50
2023-01-07T19:50:20.228Z,1.57
2023-01-07T19:52:47.780Z,1.60
2023-01-07T19:55:15.767Z,1.60
2023-01-07T19:57:43.175Z,1.40
2023-01-07T20:00:11.056Z,1.67
2023-01-07T20:02:38.510Z,1.53
2023-01-07T20:05:06.175Z,1.50
2023-01-07T20:07:46.788Z,1.83
2023-01-07T20:10:14.392Z,1.37
2023-01-07T20:12:41.867Z,1.60
2023-01-07T20:15:10.139Z,1.80
2023-01-07T20:17:37.629Z,1.50
2023-01-07T20:20:08.086Z,1.43
2023-01-07T20:22:35.764Z,1.40
2023-01-07T20:25:03.192Z,1.50
2023-01-07T20:27:31.074Z,1.27
2023-01-07T20:29:58.986Z,1.50
2023-01-07T20:32:27.177Z,1.67
2023-01-07T20:34:54.595Z,1.83
2023-01-07T20:37:24.651Z,1.70
2023-01-07T20:39:51.997Z,1.83
2023-01-07T20:42:19.473Z,1.30
2023-01-07T20:44:47.329Z,1.50
2023-01-07T20:47:15.258Z,1.63
2023-01-07T20:49:42.686Z,1.50
2023-01-07T20:52:10.093Z,1.77
2023-01-07T20:54:37.483Z,1.80
2023-01-07T20:57:04.943Z,1.80
2023-01-07T20:59:32.344Z,1.67
2023-01-07T21:01:59.851Z,1.67
2023-01-07T21:04:32.548Z,1.50
2023-01-07T21:06:59.892Z,1.53
2023-01-07T21:09:27.259Z,1.90
2023-01-07T21:11:54.745Z,1.43
2023-01-07T21:14:22.215Z,1.90
2023-01-07T21:16:49.751Z,2.00
2023-01-07T21:19:17.269Z,1.70
2023-01-07T21:21:44.699Z,1.67
2023-01-07T21:24:12.258Z,1.87
2023-01-07T21:26:39.595Z,1.80
2023-01-07T21:29:07.039Z,1.57
2023-01-07T21:31:34.390Z,1.60
2023-01-07T21:34:02.165Z,1.70
2023-01-07T21:36:29.543Z,1.60
2023-01-07T21:38:57.966Z,1.67
2023-01-07T21:41:25.880Z,1.50
2023-01-07T21:43:53.293Z,2.00
2023-01-07T21:46:22.684Z,1.67
2023-01-07T21:48:50.244Z,1.60
2023-01-07T21:51:27.830Z,1.50
2023-01-07T21:53:56.870Z,1.27
2023-01-07T21:56:27.076Z,1.97
2023-01-07T21:58:54.415Z,1.50
2023-01-07T22:01:22.870Z,1.50
2023-01-07T22:03:50.312Z,1.77
2023-01-07T22:06:21.944Z,1.53
2023-01-07T22:08:50.054Z,1.60
2023-01-07T22:11:18.695Z,1.20
2023-01-07T22:13:50.343Z,1.80
2023-01-07T22:16:17.849Z,1.30
2023-01-07T22:18:45.325Z,1.60
2023-01-07T22:21:12.727Z,1.53
2023-01-07T22:23:40.237Z,1.70
2023-01-07T22:26:08.592Z,1.60
2023-01-07T22:28:37.073Z,1.60
2023-01-07T22:31:16.236Z,1.70
2023-01-07T22:33:43.563Z,1.67
2023-01-07T22:36:12.689Z,1.63
2023-01-07T22:38:40.045Z,1.30
2023-01-07T22:41:08.696Z,2.00
2023-01-07T22:43:36.370Z,1.43
2023-01-07T22:46:06.004Z,1.57
2023-01-07T22:48:35.414Z,1.43
2023-01-07T22:51:05.751Z,1.40
2023-01-07T22:53:33.687Z,1.60
2023-01-07T22:56:01.101Z,1.23
2023-01-07T22:58:28.430Z,1.30
2023-01-07T23:01:08.072Z,1.20
2023-01-07T23:03:35.673Z,1.43
2023-01-07T23:06:03.081Z,1.57
2023-01-07T23:08:30.411Z,1.07
2023-01-07T23:10:57.765Z,1.10
2023-01-07T23:13:25.060Z,1.00
2023-01-07T23:15:52.431Z,1.30
2023-01-07T23:18:19.783Z,1.03
2023-01-07T23:20:47.121Z,1.20
2023-01-07T23:23:14.767Z,1.00
2023-01-07T23:25:49.098Z,1.07
2023-01-07T23:28:17.135Z,1.20
2023-01-07T23:30:44.841Z,1.00
2023-01-07T23:33:12.178Z,1.33
2023-01-07T23:35:39.515Z,1.07
2023-01-07T23:38:06.809Z,1.00
2023-01-07T23:40:34.183Z,1.20
2023-01-07T23:43:01.532Z,1.00
2023-01-07T23:45:29.141Z,1.13
2023-01-07T23:47:56.613Z,1.10
2023-01-07T23:50:23.981Z,0.93
2023-01-07T23:52:51.302Z,1.20
2023-01-07T23:55:18.688Z,0.90
2023-01-07T23:57:46.033Z,1.07
